Time;durP1;ratioP1;P1;durP2;ratioP2;P2;SDS_P1;SDS_P2;PMS_P1;PMS_P2;Temp;Humidity;BMP_temperature;BMP_pressure;BME280_temperature;BME280_humidity;BME280_pressure;Samples;Min_cycle;Max_cycle;Signal;HPM_P1;HPM_P2
2023/10/15 00:00:35;;;;;;;3.45;1.50;;;;;;;23.08;66.56;101795.59;5049505;28;20706;-54
2023/10/15 00:03:02;;;;;;;2.63;1.38;;;;;;;23.07;66.42;101796.69;5049501;28;20059;-51
2023/10/15 00:05:28;;;;;;;3.58;1.42;;;;;;;23.05;65.99;101804.47;5048659;28;20759;-50
2023/10/15 00:07:57;;;;;;;3.97;1.40;;;;;;;23.05;66.55;101800.88;5048499;28;20079;-45
2023/10/15 00:10:27;;;;;;;2.75;1.40;;;;;;;23.04;66.57;101788.16;5033751;28;20036;-46
2023/10/15 00:12:54;;;;;;;11.45;1.50;;;;;;;23.03;66.37;101797.59;5049329;28;20044;-54
2023/10/15 00:15:20;;;;;;;4.18;1.60;;;;;;;23.02;66.33;101794.00;5031961;28;20040;-50
2023/10/15 00:17:51;;;;;;;2.78;1.58;;;;;;;23.01;66.41;101788.75;5048836;28;20036;-53
2023/10/15 00:20:20;;;;;;;6.18;1.83;;;;;;;22.99;66.39;101788.22;5049251;28;21545;-52
2023/10/15 00:22:51;;;;;;;3.55;1.50;;;;;;;22.99;66.50;101779.91;5049050;28;20034;-54
2023/10/15 00:25:19;;;;;;;5.55;1.90;;;;;;;22.96;66.39;101773.03;5052102;28;20246;-51
2023/10/15 00:27:52;;;;;;;3.13;1.50;;;;;;;22.97;66.45;101788.50;5053177;28;20039;-45
2023/10/15 00:30:19;;;;;;;3.28;1.50;;;;;;;22.97;66.86;101782.13;5052874;28;20492;-44
2023/10/15 00:32:45;;;;;;;3.30;1.35;;;;;;;22.95;66.88;101779.66;5052625;28;20442;-44
2023/10/15 00:35:13;;;;;;;6.35;1.50;;;;;;;22.95;66.60;101781.63;5053239;28;20050;-44
2023/10/15 00:37:54;;;;;;;4.78;1.33;;;;;;;22.95;66.66;101787.16;5052322;28;20051;-44
2023/10/15 00:40:20;;;;;;;4.63;1.38;;;;;;;22.94;66.45;101791.00;5041977;28;21408;-45
2023/10/15 00:42:46;;;;;;;3.88;1.50;;;;;;;22.95;67.01;101798.19;5054039;28;20047;-44
2023/10/15 00:45:17;;;;;;;5.30;1.75;;;;;;;22.91;66.96;101804.28;5051894;28;20028;-44
2023/10/15 00:47:45;;;;;;;4.00;1.60;;;;;;;22.91;66.84;101820.88;5066948;28;20027;-45
2023/10/15 00:50:11;;;;;;;6.65;1.90;;;;;;;22.93;66.84;101823.38;5051881;28;20361;-45
2023/10/15 00:52:43;;;;;;;4.90;1.40;;;;;;;22.93;67.04;101809.56;5068811;28;20047;-43
2023/10/15 00:55:35;;;;;;;3.88;1.40;;;;;;;22.96;66.73;101808.16;5051730;28;20036;-44
2023/10/15 00:58:08;;;;;;;4.35;1.40;;;;;;;22.96;66.70;101808.16;5029706;28;20036;-46
2023/10/15 01:00:39;;;;;;;5.03;1.38;;;;;;;22.96;66.91;101811.72;5052443;28;21230;-44
2023/10/15 01:03:07;;;;;;;4.00;1.40;;;;;;;22.98;66.92;101795.69;5051756;28;20068;-45
2023/10/15 01:05:44;;;;;;;4.70;1.40;;;;;;;22.98;66.54;101783.78;5030153;28;20036;-44
2023/10/15 01:08:09;;;;;;;4.43;1.40;;;;;;;22.99;66.54;101802.88;5051269;28;20040;-44
2023/10/15 01:10:42;;;;;;;5.03;1.27;;;;;;;22.99;66.63;101805.63;5016122;28;20085;-45
2023/10/15 01:13:20;;;;;;;3.38;1.77;;;;;;;23.02;66.64;101818.06;5046079;28;20574;-46
2023/10/15 01:15:48;;;;;;;3.25;1.38;;;;;;;22.99;66.77;101833.28;5050876;28;20384;-45
2023/10/15 01:18:15;;;;;;;4.10;1.73;;;;;;;23.01;66.62;101844.84;5051748;28;20032;-45
2023/10/15 01:20:43;;;;;;;5.93;1.70;;;;;;;23.01;66.42;101847.63;5051785;28;20051;-44
2023/10/15 01:23:28;;;;;;;5.70;1.38;;;;;;;23.02;65.64;101831.88;5067366;27;20759;-45
2023/10/15 01:25:57;;;;;;;5.13;1.48;;;;;;;22.99;66.14;101819.47;5051801;28;20054;-51
2023/10/15 01:28:30;;;;;;;3.13;1.27;;;;;;;22.99;66.15;101804.78;5052311;28;20031;-53
2023/10/15 01:30:58;;;;;;;3.67;1.60;;;;;;;23.00;66.50;101801.72;5031607;28;21246;-54
2023/10/15 01:33:24;;;;;;;5.85;1.63;;;;;;;23.01;66.49;101797.88;5052896;28;20573;-53
2023/10/15 01:35:50;;;;;;;3.47;1.40;;;;;;;22.99;66.48;101800.09;5049329;28;20046;-53
2023/10/15 01:38:26;;;;;;;5.63;1.58;;;;;;;22.97;66.29;101799.56;5051990;28;20112;-44
2023/10/15 01:40:56;;;;;;;2.67;1.27;;;;;;;22.96;66.28;101795.13;5036699;28;20039;-45
2023/10/15 01:43:23;;;;;;;5.80;1.60;;;;;;;22.94;66.59;101802.88;5051808;28;20032;-44
2023/10/15 01:45:56;;;;;;;4.10;1.70;;;;;;;22.93;66.56;101804.03;5051340;28;20060;-44
2023/10/15 01:48:24;;;;;;;4.55;1.73;;;;;;;22.93;66.44;101798.50;5034503;28;21170;-44
2023/10/15 01:50:51;;;;;;;4.53;1.85;;;;;;;22.90;66.46;101799.06;5033682;28;20085;-44
2023/10/15 01:53:17;;;;;;;3.55;1.40;;;;;;;22.88;66.72;101802.13;5052335;28;20036;-44
2023/10/15 01:55:52;;;;;;;4.38;1.77;;;;;;;22.85;66.45;101810.16;5050554;28;20042;-44
2023/10/15 01:58:24;;;;;;;2.58;1.33;;;;;;;22.82;66.79;101819.84;5052046;28;20324;-55
2023/10/15 02:00:50;;;;;;;3.95;1.58;;;;;;;22.81;67.10;101809.91;5050460;28;20039;-54
2023/10/15 02:03:15;;;;;;;4.57;1.63;;;;;;;22.79;66.98;101800.25;5029884;28;20067;-51
2023/10/15 02:05:41;;;;;;;5.80;1.52;;;;;;;22.76;66.72;101791.41;5025932;28;20036;-54
2023/10/15 02:08:16;;;;;;;3.88;1.40;;;;;;;22.73;66.88;101786.47;5029398;28;20118;-52
2023/10/15 02:10:47;;;;;;;2.75;1.05;;;;;;;22.72;67.39;101792.25;5031298;28;20182;-45
2023/10/15 02:13:16;;;;;;;4.78;1.80;;;;;;;22.70;66.95;101802.78;5060722;28;20598;-44
2023/10/15 02:15:43;;;;;;;3.38;1.40;;;;;;;22.69;67.23;101853.63;5029126;28;20641;-53
2023/10/15 02:18:18;;;;;;;4.07;1.55;;;;;;;22.67;67.54;101906.44;5030306;28;20032;-45
2023/10/15 02:23:20;;;;;;;3.10;1.50;;;;;;;22.65;67.49;101847.00;5029632;28;20602;-45
2023/10/15 02:26:07;;;;;;;1.75;1.17;;;;;;;22.69;67.41;101842.59;5031154;28;20400;-44
2023/10/15 02:28:32;;;;;;;3.95;1.40;;;;;;;22.65;67.61;101831.28;5029067;28;20276;-50
2023/10/15 02:33:30;;;;;;;2.95;1.33;;;;;;;22.68;67.61;101814.13;5029420;28;20036;-44
2023/10/15 02:35:59;;;;;;;6.05;1.73;;;;;;;22.67;67.26;101820.78;5030596;28;20600;-45
2023/10/15 02:38:34;;;;;;;3.75;1.70;;;;;;;22.64;67.22;101832.38;5030149;28;20509;-44
2023/10/15 02:43:29;;;;;;;3.45;1.30;;;;;;;22.59;67.31;101838.75;5030413;28;20613;-44
2023/10/15 02:46:00;;;;;;;4.22;1.50;;;;;;;22.57;67.52;101842.91;5029336;28;20032;-53
2023/10/15 02:48:26;;;;;;;5.13;1.52;;;;;;;22.54;67.39;101855.38;5059385;28;20078;-54
2023/10/15 02:51:07;;;;;;;1.88;1.15;;;;;;;22.54;67.51;101844.31;5029817;28;20032;-54
2023/10/15 02:53:34;;;;;;;5.15;1.50;;;;;;;22.53;67.16;101830.78;5029572;28;20141;-54
2023/10/15 02:55:59;;;;;;;3.08;1.25;;;;;;;22.50;66.12;101810.09;5030082;28;20032;-51
2023/10/15 02:58:28;;;;;;;4.03;1.23;;;;;;;22.47;66.25;101807.88;5030812;28;20869;-52
2023/10/15 03:00:59;;;;;;;2.28;1.30;;;;;;;22.45;66.06;101812.84;5030317;28;20037;-54
2023/10/15 03:03:32;;;;;;;3.08;1.10;;;;;;;22.43;66.24;101807.63;5034987;28;20084;-52
2023/10/15 03:05:58;;;;;;;3.53;1.45;;;;;;;22.40;66.66;101796.31;5050271;28;20032;-53
2023/10/15 03:08:30;;;;;;;2.38;1.40;;;;;;;22.40;66.57;101796.31;5049406;28;20354;-44
2023/10/15 03:11:01;;;;;;;2.50;1.20;;;;;;;22.39;66.95;101797.41;5026495;28;20527;-47
2023/10/15 03:13:28;;;;;;;1.77;1.17;;;;;;;22.37;65.90;101807.91;5049276;28;20393;-46
2023/10/15 03:15:57;;;;;;;2.75;1.15;;;;;;;22.36;66.15;101795.22;5028754;28;20514;-45
2023/10/15 03:18:23;;;;;;;2.33;1.20;;;;;;;22.32;66.48;101808.75;5050855;28;20866;-55
2023/10/15 03:21:00;;;;;;;2.70;1.08;;;;;;;22.31;66.84;101814.56;5048738;28;20089;-52
2023/10/15 03:23:25;;;;;;;4.70;1.30;;;;;;;22.31;66.91;101829.19;5063090;28;20499;-54
2023/10/15 03:25:58;;;;;;;6.05;1.17;;;;;;;22.32;67.03;101830.00;5050591;28;20063;-54
2023/10/15 03:28:24;;;;;;;2.75;1.23;;;;;;;22.31;67.41;101829.19;5048684;28;20024;-54
2023/10/15 03:30:54;;;;;;;1.83;1.10;;;;;;;22.31;67.32;101826.44;5050025;28;20185;-54
2023/10/15 03:33:22;;;;;;;6.32;1.33;;;;;;;22.31;67.42;101814.56;5049425;28;20027;-53
2023/10/15 03:35:54;;;;;;;2.75;1.15;;;;;;;22.28;67.10;101821.50;5050439;28;20151;-54
2023/10/15 03:38:23;;;;;;;2.67;1.10;;;;;;;22.30;67.41;101837.78;5035530;28;20567;-54
2023/10/15 03:40:50;;;;;;;2.92;1.20;;;;;;;22.29;67.09;101834.16;5049769;28;20024;-54
2023/10/15 03:43:20;;;;;;;2.13;1.38;;;;;;;22.28;67.49;101835.28;5049300;28;20213;-54
2023/10/15 03:45:52;;;;;;;2.75;1.20;;;;;;;22.26;67.58;101843.84;5049429;28;20029;-54
2023/10/15 03:48:21;;;;;;;2.35;1.08;;;;;;;22.27;67.15;101839.97;5050538;28;20034;-43
2023/10/15 03:50:57;;;;;;;2.50;1.20;;;;;;;22.27;67.72;101833.63;5048879;28;20765;-44
2023/10/15 03:53:36;;;;;;;2.63;1.13;;;;;;;22.25;67.59;101831.13;5050097;28;20039;-45
2023/10/15 03:56:04;;;;;;;1.65;1.10;;;;;;;22.26;67.46;101831.97;5048600;28;20350;-51
2023/10/15 03:58:33;;;;;;;3.85;1.30;;;;;;;22.25;67.45;101839.41;5032648;28;20040;-54
2023/10/15 04:01:12;;;;;;;3.92;1.48;;;;;;;22.26;67.28;101838.31;5052053;28;20034;-46
2023/10/15 04:03:42;;;;;;;2.47;1.23;;;;;;;22.25;67.28;101842.19;5020228;28;20243;-44
2023/10/15 04:06:07;;;;;;;3.42;1.25;;;;;;;22.24;67.58;101848.84;5017845;28;20044;-43
2023/10/15 04:08:33;;;;;;;3.08;1.30;;;;;;;22.23;67.81;101835.28;5009511;28;20401;-44
2023/10/15 04:10:59;;;;;;;3.78;1.20;;;;;;;22.21;67.84;101837.53;5010986;28;20567;-53
2023/10/15 04:13:28;;;;;;;2.28;1.27;;;;;;;22.21;68.01;101832.00;5008162;28;20034;-54
2023/10/15 04:15:55;;;;;;;2.75;1.38;;;;;;;22.21;67.80;101834.78;5007845;28;20306;-45
2023/10/15 04:18:25;;;;;;;2.42;1.15;;;;;;;22.19;67.44;101828.69;5007777;28;20033;-42
2023/10/15 04:20:52;;;;;;;3.30;1.30;;;;;;;22.18;67.69;101827.88;5009383;28;21167;-52
2023/10/15 04:23:30;;;;;;;1.83;1.23;;;;;;;22.18;67.55;101830.63;5008952;28;20035;-53
2023/10/15 04:25:59;;;;;;;2.08;1.30;;;;;;;22.18;67.84;101827.03;5006840;28;20686;-53
2023/10/15 04:28:25;;;;;;;5.32;1.38;;;;;;;22.17;67.49;101840.03;5008780;28;20853;-43
2023/10/15 04:30:51;;;;;;;3.72;1.40;;;;;;;22.16;68.04;101832.84;5012203;28;20044;-43
2023/10/15 04:33:22;;;;;;;6.30;1.30;;;;;;;22.16;67.60;101835.59;5009509;28;20060;-53
2023/10/15 04:35:49;;;;;;;2.70;1.20;;;;;;;22.14;67.80;101839.75;5009059;28;21455;-52
2023/10/15 04:38:21;;;;;;;2.58;1.10;;;;;;;22.13;68.10;101866.53;5008256;28;20030;-54
2023/10/15 04:41:10;;;;;;;2.13;1.15;;;;;;;22.15;67.86;101874.53;5007862;28;20044;-54
2023/10/15 04:43:41;;;;;;;3.50;1.30;;;;;;;22.14;67.79;101876.47;5007962;28;20039;-53
2023/10/15 04:46:25;;;;;;;3.15;1.23;;;;;;;22.15;67.84;101880.06;5008541;28;20064;-53
2023/10/15 04:48:51;;;;;;;2.03;1.10;;;;;;;22.14;67.83;101876.47;5007843;28;20048;-53
2023/10/15 04:51:16;;;;;;;2.67;1.23;;;;;;;22.14;67.79;101872.88;5007786;28;20029;-52
2023/10/15 04:53:48;;;;;;;2.15;1.13;;;;;;;22.14;68.30;101865.41;5008869;28;20118;-54
2023/10/15 04:56:14;;;;;;;2.25;1.15;;;;;;;22.13;68.12;101872.03;5011505;28;20630;-52
2023/10/15 04:58:40;;;;;;;4.10;1.48;;;;;;;22.12;67.96;101876.75;5007874;28;20069;-53
2023/10/15 05:01:07;;;;;;;2.47;1.38;;;;;;;22.13;67.98;101869.28;5026354;28;20065;-54
2023/10/15 05:03:33;;;;;;;2.70;1.50;;;;;;;22.12;67.89;101878.66;5024349;28;20393;-53
2023/10/15 05:06:10;;;;;;;2.70;1.30;;;;;;;22.12;67.61;101884.19;5052328;28;20039;-45
2023/10/15 05:08:36;;;;;;;3.25;1.40;;;;;;;22.10;68.02;101880.91;5052478;28;20062;-54
2023/10/15 05:11:03;;;;;;;3.05;1.38;;;;;;;22.12;67.71;101878.66;5052299;28;20461;-54
2023/10/15 05:13:31;;;;;;;2.08;1.33;;;;;;;22.13;67.84;101877.56;5036287;28;20027;-43
2023/10/15 05:15:57;;;;;;;3.78;1.40;;;;;;;22.11;67.77;101880.63;5035337;28;20083;-43
2023/10/15 05:18:22;;;;;;;5.15;1.60;;;;;;;22.10;67.96;101862.38;5051831;28;20038;-43
2023/10/15 05:20:50;;;;;;;3.17;1.40;;;;;;;22.08;67.68;101864.63;5032154;28;20024;-44
2023/10/15 05:23:17;;;;;;;2.92;1.35;;;;;;;22.09;67.94;101865.44;5051673;28;20335;-44
2023/10/15 05:25:42;;;;;;;3.00;1.40;;;;;;;22.08;67.79;101869.31;5037726;28;20078;-45
2023/10/15 05:28:08;;;;;;;3.45;1.40;;;;;;;22.06;67.66;101864.06;5052678;28;20046;-53
2023/10/15 05:30:34;;;;;;;3.10;1.30;;;;;;;22.06;67.34;101866.81;5053135;28;20349;-54
2023/10/15 05:33:01;;;;;;;4.10;1.40;;;;;;;22.05;67.71;101869.88;5051784;28;20109;-44
2023/10/15 05:35:29;;;;;;;5.00;1.50;;;;;;;22.04;67.34;101865.47;5052097;28;20724;-53
2023/10/15 05:37:55;;;;;;;3.03;1.30;;;;;;;22.04;67.56;101870.97;5051920;28;20035;-55
2023/10/15 05:40:21;;;;;;;2.65;1.35;;;;;;;22.03;67.50;101877.59;5051881;28;20061;-55
2023/10/15 05:42:48;;;;;;;3.47;1.10;;;;;;;22.04;67.39;101879.25;5030665;28;20051;-54
2023/10/15 05:45:14;;;;;;;2.40;1.30;;;;;;;22.03;67.18;101875.66;5051131;28;20085;-54
2023/10/15 05:47:42;;;;;;;3.15;1.42;;;;;;;22.03;67.33;101874.84;5051278;28;20058;-46
2023/10/15 05:50:09;;;;;;;3.00;1.27;;;;;;;22.02;67.29;101887.78;5050798;28;21504;-54
2023/10/15 05:52:34;;;;;;;3.70;1.30;;;;;;;22.01;67.04;101894.44;5037810;28;20119;-53
2023/10/15 05:55:01;;;;;;;2.10;1.10;;;;;;;22.02;66.86;101900.78;5051341;28;20072;-54
2023/10/15 05:57:27;;;;;;;3.67;1.50;;;;;;;22.00;67.26;101908.50;5051779;28;20488;-52
2023/10/15 05:59:54;;;;;;;2.33;1.30;;;;;;;21.99;67.27;101902.16;5051645;28;20572;-54
2023/10/15 06:02:20;;;;;;;2.75;1.40;;;;;;;22.01;67.18;101916.53;5050445;28;20535;-54
2023/10/15 06:04:47;;;;;;;2.53;1.30;;;;;;;22.02;67.04;101917.34;5050684;28;20043;-53
2023/10/15 06:07:13;;;;;;;4.25;1.75;;;;;;;22.00;67.21;101919.53;5050934;28;20039;-43
2023/10/15 06:09:38;;;;;;;3.88;1.48;;;;;;;21.99;67.25;101920.69;5051385;28;20599;-44
2023/10/15 06:12:05;;;;;;;2.17;1.50;;;;;;;21.98;67.18;101908.78;5049681;28;20118;-44
2023/10/15 06:14:32;;;;;;;4.22;1.42;;;;;;;22.00;66.82;101903.84;5050791;28;20474;-46
2023/10/15 06:16:58;;;;;;;1.83;1.15;;;;;;;22.04;67.15;101899.41;5049599;28;20111;-43
2023/10/15 06:19:25;;;;;;;3.28;1.30;;;;;;;22.07;66.95;101900.78;5025853;28;20040;-44
2023/10/15 06:21:51;;;;;;;4.00;1.80;;;;;;;22.11;66.75;101910.16;5031127;28;20396;-47
2023/10/15 06:24:16;;;;;;;2.65;1.40;;;;;;;22.18;66.90;101909.84;5050176;28;20128;-54
2023/10/15 06:26:42;;;;;;;2.25;1.45;;;;;;;22.26;66.64;101917.59;5049961;28;20237;-55
2023/10/15 06:29:09;;;;;;;2.35;1.13;;;;;;;22.36;66.79;101919.50;5031770;28;20444;-53
2023/10/15 06:31:37;;;;;;;4.22;1.27;;;;;;;22.46;66.59;101919.47;5049482;28;20680;-53
2023/10/15 06:34:03;;;;;;;2.65;1.40;;;;;;;22.53;66.46;101925.53;5050086;28;20036;-44
2023/10/15 06:36:28;;;;;;;5.05;1.55;;;;;;;22.60;66.31;101919.72;5064683;28;20070;-54
2023/10/15 06:38:56;;;;;;;3.85;1.50;;;;;;;22.63;66.53;101923.84;5044075;28;20113;-44
2023/10/15 06:41:22;;;;;;;3.03;1.38;;;;;;;22.65;66.15;101929.91;5049045;28;20040;-45
2023/10/15 06:43:47;;;;;;;6.28;1.67;;;;;;;;;;5049839;28;20043;-53
2023/10/15 06:46:13;;;;;;;2.95;1.45;;;;;;;22.69;66.49;101923.53;5049893;28;20077;-52
2023/10/15 06:48:38;;;;;;;3.50;1.40;;;;;;;22.70;66.58;101927.13;5050023;28;20131;-54
2023/10/15 06:51:06;;;;;;;3.35;1.48;;;;;;;22.70;66.29;101936.25;5051648;28;20478;-53
2023/10/15 06:53:32;;;;;;;3.85;1.63;;;;;;;22.70;66.51;101929.91;5049612;28;20036;-53
2023/10/15 06:55:58;;;;;;;5.75;1.65;;;;;;;22.70;66.23;101939.00;5031956;28;20055;-43
2023/10/15 06:58:25;;;;;;;2.80;1.20;;;;;;;22.70;66.60;101941.75;5050213;28;20228;-43
2023/10/15 07:00:54;;;;;;;3.25;1.15;;;;;;;22.70;66.66;101946.47;5046470;28;20040;-44
2023/10/15 07:03:20;;;;;;;3.13;1.60;;;;;;;22.69;66.58;101939.28;5051221;28;20215;-46
2023/10/15 07:05:45;;;;;;;3.67;1.60;;;;;;;22.68;66.66;101949.50;5049034;28;20488;-44
2023/10/15 07:08:11;;;;;;;3.22;1.77;;;;;;;22.66;66.77;101970.25;5047470;28;20101;-45
2023/10/15 07:10:38;;;;;;;2.13;1.15;;;;;;;22.63;66.33;101965.28;5028354;28;20456;-45
2023/10/15 07:13:03;;;;;;;3.60;1.52;;;;;;;22.64;66.48;101964.19;5028482;28;20106;-44
2023/10/15 07:15:29;;;;;;;3.15;1.30;;;;;;;;;;5048918;28;20855;-44
2023/10/15 07:17:55;;;;;;;3.58;1.70;;;;;;;22.68;66.14;101979.09;5049171;28;20653;-44
2023/10/15 07:20:29;;;;;;;4.20;1.38;;;;;;;;;;5048426;28;20036;-45
2023/10/15 07:22:56;;;;;;;;;;;;;;;22.66;66.24;101986.81;5063435;28;20090;-45
2023/10/15 07:25:24;;;;;;;4.78;1.63;;;;;;;22.64;66.18;101989.88;5048717;28;20322;-46
2023/10/15 07:27:50;;;;;;;3.05;1.80;;;;;;;22.66;66.06;102006.16;5048913;28;20031;-46
2023/10/15 07:30:17;;;;;;;3.55;1.60;;;;;;;22.65;65.81;102004.50;5027317;28;20071;-44
2023/10/15 07:32:44;;;;;;;3.85;1.60;;;;;;;22.68;65.80;102007.53;5048218;28;20109;-47
2023/10/15 07:35:14;;;;;;;3.85;1.60;;;;;;;22.68;65.72;102006.72;5048205;28;20682;-43
2023/10/15 07:37:40;;;;;;;6.93;1.60;;;;;;;22.68;65.46;102015.81;5048999;28;20043;-45
2023/10/15 07:40:17;;;;;;;6.72;1.58;;;;;;;22.69;65.52;102020.25;5048861;28;20088;-45
2023/10/15 07:42:50;;;;;;;4.63;1.83;;;;;;;22.71;65.00;102028.25;5049469;28;20032;-43
2023/10/15 07:45:16;;;;;;;3.50;1.60;;;;;;;22.71;65.02;102029.09;5027273;28;20442;-44
2023/10/15 07:47:42;;;;;;;4.82;1.55;;;;;;;22.72;64.97;102032.66;5030700;28;20033;-44
2023/10/15 07:50:10;;;;;;;4.88;1.77;;;;;;;22.73;65.08;102031.56;5049210;28;20074;-44
2023/10/15 07:52:37;;;;;;;3.80;1.55;;;;;;;22.74;65.00;102035.97;5050208;28;20039;-43
2023/10/15 07:55:05;;;;;;;4.28;1.60;;;;;;;22.73;64.97;102043.47;5048434;28;20036;-44
2023/10/15 07:57:30;;;;;;;7.10;1.77;;;;;;;22.73;64.65;102048.16;5028370;28;20062;-46
2023/10/15 07:59:58;;;;;;;3.05;1.55;;;;;;;22.70;64.44;102044.00;5049361;28;20032;-44
2023/10/15 08:02:24;;;;;;;4.75;1.58;;;;;;;22.69;64.70;102044.28;5034199;28;20110;-44
2023/10/15 08:04:57;;;;;;;3.42;1.70;;;;;;;22.68;64.59;102046.22;5022968;28;20049;-45
2023/10/15 08:07:22;;;;;;;3.47;1.48;;;;;;;22.63;64.77;102042.66;5028344;28;20836;-45
2023/10/15 08:09:50;;;;;;;3.85;1.42;;;;;;;22.60;64.55;102046.81;5028941;28;20373;-45
2023/10/15 08:12:16;;;;;;;4.88;1.83;;;;;;;22.60;64.51;102038.53;5025862;28;20040;-47
2023/10/15 08:14:42;;;;;;;4.55;1.40;;;;;;;22.58;64.43;102055.34;5029427;28;20032;-44
2023/10/15 08:17:07;;;;;;;3.60;1.70;;;;;;;22.57;64.62;102062.00;5028860;28;20530;-43
2023/10/15 08:19:33;;;;;;;3.20;1.42;;;;;;;22.58;64.58;102109.78;5029486;28;20440;-45
2023/10/15 08:21:59;;;;;;;4.20;1.90;;;;;;;22.55;64.61;102097.38;5029889;28;20091;-46
2023/10/15 08:24:25;;;;;;;2.65;1.38;;;;;;;22.54;64.06;102090.19;5029703;28;20044;-45
2023/10/15 08:26:51;;;;;;;2.50;1.20;;;;;;;22.54;64.15;102081.06;5028120;28;20398;-44
2023/10/15 08:29:19;;;;;;;3.72;1.70;;;;;;;22.52;64.16;102086.03;5029105;28;21309;-44
2023/10/15 08:31:48;;;;;;;2.70;1.30;;;;;;;22.50;64.20;102091.00;5028172;28;20403;-45
2023/10/15 08:34:13;;;;;;;3.25;1.50;;;;;;;22.47;64.37;102099.88;5029325;28;20739;-44
2023/10/15 08:36:39;;;;;;;3.88;1.70;;;;;;;22.44;64.32;102098.47;5028958;28;20060;-45
2023/10/15 08:39:06;;;;;;;3.17;1.60;;;;;;;22.41;64.54;102101.78;5027765;28;20123;-44
2023/10/15 08:41:38;;;;;;;4.07;1.40;;;;;;;22.38;64.39;102094.88;5027647;28;20037;-44
2023/10/15 08:44:07;;;;;;;4.90;1.60;;;;;;;22.36;64.27;102101.75;5028707;28;20102;-45
2023/10/15 08:46:35;;;;;;;3.53;1.88;;;;;;;22.35;64.31;102111.16;5031458;28;20758;-44
2023/10/15 08:49:05;;;;;;;3.80;1.58;;;;;;;22.31;64.40;102113.63;5032258;28;20112;-44
2023/10/15 08:51:34;;;;;;;4.68;1.30;;;;;;;22.29;63.96;102102.03;5026498;28;20029;-44
2023/10/15 08:54:02;;;;;;;3.60;1.45;;;;;;;22.26;64.36;102100.66;5032146;28;20653;-45
2023/10/15 08:56:30;;;;;;;5.05;1.80;;;;;;;22.27;64.33;102107.00;5031955;28;20029;-45
2023/10/15 08:58:57;;;;;;;4.00;1.80;;;;;;;22.26;64.81;102103.41;5030139;28;21542;-45
2023/10/15 09:01:23;;;;;;;5.10;1.50;;;;;;;22.29;64.30;102104.78;5032537;28;20045;-46
2023/10/15 09:03:52;;;;;;;4.28;1.50;;;;;;;22.28;64.38;102116.97;5036673;28;20052;-54
2023/10/15 09:06:19;;;;;;;3.08;1.48;;;;;;;22.29;64.47;102124.13;5066323;27;20052;-51
2023/10/15 09:08:50;;;;;;;4.57;1.30;;;;;;;22.28;64.17;102131.59;5051538;28;20046;-44
2023/10/15 09:11:16;;;;;;;1.70;1.17;;;;;;;22.28;64.67;102120.53;5052683;28;20218;-54
2023/10/15 09:13:48;;;;;;;4.10;1.50;;;;;;;22.30;64.58;102138.78;5051857;28;20403;-55
2023/10/15 09:16:14;;;;;;;4.07;1.30;;;;;;;22.30;65.02;102145.09;5051859;28;20028;-54
2023/10/15 09:18:39;;;;;;;3.80;1.25;;;;;;;22.32;64.98;102136.53;5051547;28;20047;-53
2023/10/15 09:21:05;;;;;;;3.72;1.40;;;;;;;22.36;64.59;102144.00;5032040;28;20290;-54
2023/10/15 09:23:35;;;;;;;4.10;1.35;;;;;;;22.39;64.69;102153.72;5050251;28;20040;-54
2023/10/15 09:26:01;;;;;;;3.45;1.48;;;;;;;22.39;64.64;102164.75;5033523;28;20102;-53
2023/10/15 09:28:27;;;;;;;3.83;1.30;;;;;;;22.36;64.71;102174.38;5050282;28;20036;-53
2023/10/15 09:31:02;;;;;;;2.13;1.25;;;;;;;22.33;64.37;102172.19;5049678;28;20031;-53
2023/10/15 09:33:29;;;;;;;4.30;1.33;;;;;;;22.33;64.41;102171.34;5050555;28;20462;-54
2023/10/15 09:35:55;;;;;;;4.78;1.55;;;;;;;22.35;64.41;102171.91;5051486;28;20035;-53
2023/10/15 09:38:20;;;;;;;2.22;1.17;;;;;;;22.39;64.73;102171.13;5029610;28;20036;-54
2023/10/15 09:40:46;;;;;;;3.35;1.85;;;;;;;22.45;65.03;102177.47;5032922;28;20051;-54
2023/10/15 09:43:13;;;;;;;3.03;1.33;;;;;;;22.51;64.76;102183.81;5050660;28;20036;-54
2023/10/15 09:45:41;;;;;;;2.50;1.35;;;;;;;22.58;64.61;102179.69;5027017;28;20774;-55
2023/10/15 09:48:09;;;;;;;3.78;1.75;;;;;;;22.63;64.31;102183.56;5051100;28;20476;-54
2023/10/15 09:50:38;;;;;;;4.03;1.40;;;;;;;22.68;64.44;102191.84;5049772;28;20025;-54
2023/10/15 09:53:11;;;;;;;3.20;1.33;;;;;;;22.75;64.25;102190.47;5049424;28;20031;-55
2023/10/15 09:55:40;;;;;;;5.35;1.50;;;;;;;22.83;64.64;102196.53;5049538;28;20040;-52
2023/10/15 09:58:09;;;;;;;4.07;1.65;;;;;;;22.89;64.84;102204.56;5048745;28;20446;-54
2023/10/15 10:00:47;;;;;;;5.22;2.40;;;;;;;22.91;64.60;102204.28;5049403;28;21267;-56
2023/10/15 10:03:26;;;;;;;4.95;2.58;;;;;;;22.93;64.95;102221.44;5031300;28;20048;-53
2023/10/15 10:06:22;;;;;;;6.57;3.33;;;;;;;22.96;64.80;102211.75;5047777;28;20683;-54
2023/10/15 10:09:23;;;;;;;8.90;5.05;;;;;;;22.97;65.07;102203.16;5049105;28;20032;-55
2023/10/15 10:12:07;;;;;;;13.18;6.90;;;;;;;23.02;65.00;102202.34;5048614;28;20027;-51
2023/10/15 10:14:35;;;;;;;11.30;6.82;;;;;;;23.04;64.90;102192.66;5048981;28;20743;-54
2023/10/15 10:17:01;;;;;;;12.20;6.80;;;;;;;23.06;64.84;102195.94;5049530;28;20035;-55
2023/10/15 10:19:27;;;;;;;12.43;5.65;;;;;;;23.09;64.79;102202.88;5064574;28;20127;-54
2023/10/15 10:21:54;;;;;;;12.75;6.53;;;;;;;23.11;65.03;102186.81;5064092;27;20446;-53
2023/10/15 10:24:20;;;;;;;15.27;5.72;;;;;;;23.15;65.47;102210.06;5048588;28;20036;-53
2023/10/15 10:26:53;;;;;;;20.92;5.85;;;;;;;23.16;66.25;102200.66;5032251;28;20129;-54
2023/10/15 10:29:19;;;;;;;21.87;6.30;;;;;;;23.17;66.87;102210.63;5049267;28;20070;-54
2023/10/15 10:31:47;;;;;;;19.75;5.70;;;;;;;23.17;67.83;102212.56;5050585;28;20689;-55
2023/10/15 10:34:14;;;;;;;24.65;6.55;;;;;;;23.18;69.51;102217.00;5050011;28;20541;-54
2023/10/15 10:36:41;;;;;;;17.15;5.75;;;;;;;23.19;69.25;102221.44;5050678;28;20133;-56
2023/10/15 10:39:13;;;;;;;21.65;5.38;;;;;;;23.20;70.19;102226.66;5048947;28;20499;-55
2023/10/15 10:41:41;;;;;;;25.92;5.60;;;;;;;23.21;70.69;102227.47;5050058;28;20038;-56
2023/10/15 10:44:09;;;;;;;18.92;4.93;;;;;;;23.23;69.66;102226.09;5028450;28;20062;-54
2023/10/15 10:46:44;;;;;;;15.75;4.72;;;;;;;23.24;70.25;102229.72;5049444;28;20147;-55
2023/10/15 10:49:16;;;;;;;16.98;4.93;;;;;;;23.25;69.63;102234.13;5049113;28;20483;-56
2023/10/15 10:51:43;;;;;;;18.65;4.45;;;;;;;23.26;69.59;102243.25;5049409;28;21068;-53
2023/10/15 10:54:08;;;;;;;14.13;4.05;;;;;;;23.26;69.18;102241.28;5049158;28;20055;-54
2023/10/15 10:56:39;;;;;;;12.75;3.72;;;;;;;23.27;69.06;102237.44;5049079;28;20027;-53
2023/10/15 11:03:06;;;;;;;22.48;4.15;;;;;;;23.30;68.65;102242.41;5004043;22;20060;-53
2023/10/15 11:05:46;;;;;;;10.43;3.70;;;;;;;23.31;67.78;102244.06;4980079;28;20598;-53
2023/10/15 11:08:19;;;;;;;14.52;3.38;;;;;;;23.34;68.24;102250.97;4964975;28;20115;-54
2023/10/15 11:10:51;;;;;;;13.95;3.30;;;;;;;23.35;67.80;102258.19;4989145;28;20037;-51
2023/10/15 11:13:16;;;;;;;16.75;3.97;;;;;;;23.37;67.90;102256.78;4989372;28;20037;-55
2023/10/15 11:15:43;;;;;;;9.85;3.00;;;;;;;23.39;67.94;102249.03;4988574;28;20036;-53
2023/10/15 11:18:09;;;;;;;11.52;3.03;;;;;;;23.40;67.38;102250.69;4990990;28;20033;-55
2023/10/15 11:20:35;;;;;;;10.23;2.75;;;;;;;23.43;67.10;102248.47;4989929;28;20323;-54
2023/10/15 11:23:06;;;;;;;11.25;2.72;;;;;;;23.44;67.00;102245.41;4974734;28;20038;-53
2023/10/15 11:25:34;;;;;;;9.35;3.28;;;;;;;23.46;66.76;102245.97;4989392;28;20127;-55
2023/10/15 11:28:05;;;;;;;9.95;2.67;;;;;;;23.48;66.65;102240.16;4974658;28;20145;-56
2023/10/15 11:30:31;;;;;;;7.25;2.38;;;;;;;23.48;66.32;102252.06;4990522;28;20041;-55
2023/10/15 11:32:56;;;;;;;8.25;2.38;;;;;;;23.50;66.69;102255.34;4991454;28;20532;-55
2023/10/15 11:35:22;;;;;;;11.95;2.90;;;;;;;23.53;66.14;102259.50;4972622;28;20034;-55
2023/10/15 11:37:51;;;;;;;10.38;2.33;;;;;;;23.52;65.56;102275.28;4972645;28;20042;-55
2023/10/15 11:40:20;;;;;;;7.78;2.65;;;;;;;23.52;65.30;102266.97;4990296;28;20494;-55
2023/10/15 11:42:52;;;;;;;8.15;2.30;;;;;;;23.52;65.13;102258.69;4990039;28;20713;-55
2023/10/15 11:45:30;;;;;;;5.03;2.13;;;;;;;23.53;65.72;102265.88;4991825;28;20168;-54